sensor_id;sensor_type;location;lat;lon;timestamp;temperature;humidity
19799;DHT22;10059;59.850;10.454;2022-11-14T00:02:26;8.80;99.90
19799;DHT22;10059;59.850;10.454;2022-11-14T00:04:53;8.70;99.90
19799;DHT22;10059;59.850;10.454;2022-11-14T00:07:20;8.90;99.90
19799;DHT22;10059;59.850;10.454;2022-11-14T00:09:47;8.90;99.90
19799;DHT22;10059;59.850;10.454;2022-11-14T00:12:15;8.90;99.90
19799;DHT22;10059;59.850;10.454;2022-11-14T00:14:42;8.90;99.90
19799;DHT22;10059;59.850;10.454;2022-11-14T00:17:09;8.90;99.90
19799;DHT22;10059;59.850;10.454;2022-11-14T00:19:36;8.70;99.90
19799;DHT22;10059;59.850;10.454;2022-11-14T00:22:02;8.70;99.90
19799;DHT22;10059;59.850;10.454;2022-11-14T00:24:29;8.60;99.90
19799;DHT22;10059;59.850;10.454;2022-11-14T00:26:56;8.40;99.90
19799;DHT22;10059;59.850;10.454;2022-11-14T00:29:25;8.40;99.90
19799;DHT22;10059;59.850;10.454;2022-11-14T00:31:52;8.50;99.90
19799;DHT22;10059;59.850;10.454;2022-11-14T00:34:19;8.60;99.90
19799;DHT22;10059;59.850;10.454;2022-11-14T00:36:46;8.70;99.90
19799;DHT22;10059;59.850;10.454;2022-11-14T00:39:13;8.70;99.90
19799;DHT22;10059;59.850;10.454;2022-11-14T00:41:41;8.70;99.90
19799;DHT22;10059;59.850;10.454;2022-11-14T00:44:08;8.70;99.90
19799;DHT22;10059;59.850;10.454;2022-11-14T00:46:37;8.70;99.90
19799;DHT22;10059;59.850;10.454;2022-11-14T00:49:04;8.60;99.90
19799;DHT22;10059;59.850;10.454;2022-11-14T00:51:31;8.60;99.90
19799;DHT22;10059;59.850;10.454;2022-11-14T00:53:58;8.80;99.90
19799;DHT22;10059;59.850;10.454;2022-11-14T00:56:25;8.90;99.90
19799;DHT22;10059;59.850;10.454;2022-11-14T00:58:52;8.90;99.90
19799;DHT22;10059;59.850;10.454;2022-11-14T01:01:19;8.70;99.90
19799;DHT22;10059;59.850;10.454;2022-11-14T01:03:48;8.70;99.90
19799;DHT22;10059;59.850;10.454;2022-11-14T01:06:16;8.50;99.90
19799;DHT22;10059;59.850;10.454;2022-11-14T01:08:43;8.40;99.90
19799;DHT22;10059;59.850;10.454;2022-11-14T01:11:11;8.60;99.90
19799;DHT22;10059;59.850;10.454;2022-11-14T01:13:39;8.60;99.90
19799;DHT22;10059;59.850;10.454;2022-11-14T01:16:06;8.80;99.90
19799;DHT22;10059;59.850;10.454;2022-11-14T01:18:33;8.90;99.90
19799;DHT22;10059;59.850;10.454;2022-11-14T01:21:03;8.80;99.90
19799;DHT22;10059;59.850;10.454;2022-11-14T01:23:31;8.70;99.90
19799;DHT22;10059;59.850;10.454;2022-11-14T01:26:01;8.60;99.90
19799;DHT22;10059;59.850;10.454;2022-11-14T01:28:29;8.60;99.90
19799;DHT22;10059;59.850;10.454;2022-11-14T01:30:55;8.70;99.90
19799;DHT22;10059;59.850;10.454;2022-11-14T01:33:22;8.70;99.90
19799;DHT22;10059;59.850;10.454;2022-11-14T01:35:49;8.60;99.90
19799;DHT22;10059;59.850;10.454;2022-11-14T01:38:17;8.60;99.90
19799;DHT22;10059;59.850;10.454;2022-11-14T01:40:44;8.70;99.90
19799;DHT22;10059;59.850;10.454;2022-11-14T01:43:32;8.80;99.90
19799;DHT22;10059;59.850;10.454;2022-11-14T01:46:01;8.80;99.90
19799;DHT22;10059;59.850;10.454;2022-11-14T01:48:34;8.80;99.90
19799;DHT22;10059;59.850;10.454;2022-11-14T01:51:11;8.80;99.90
19799;DHT22;10059;59.850;10.454;2022-11-14T01:53:42;8.90;99.90
19799;DHT22;10059;59.850;10.454;2022-11-14T01:56:12;8.90;99.90
19799;DHT22;10059;59.850;10.454;2022-11-14T01:58:44;8.80;99.90
19799;DHT22;10059;59.850;10.454;2022-11-14T02:01:12;8.60;99.90
19799;DHT22;10059;59.850;10.454;2022-11-14T02:03:41;8.40;99.90
19799;DHT22;10059;59.850;10.454;2022-11-14T02:06:12;8.40;99.90
19799;DHT22;10059;59.850;10.454;2022-11-14T02:08:40;8.40;99.90
19799;DHT22;10059;59.850;10.454;2022-11-14T02:11:10;8.50;99.90
19799;DHT22;10059;59.850;10.454;2022-11-14T02:13:37;8.60;99.90
19799;DHT22;10059;59.850;10.454;2022-11-14T02:16:05;8.40;99.90
19799;DHT22;10059;59.850;10.454;2022-11-14T02:18:32;8.40;99.90
19799;DHT22;10059;59.850;10.454;2022-11-14T02:21:00;8.40;99.90
19799;DHT22;10059;59.850;10.454;2022-11-14T02:23:28;8.40;99.90
19799;DHT22;10059;59.850;10.454;2022-11-14T02:25:56;8.40;99.90
19799;DHT22;10059;59.850;10.454;2022-11-14T02:28:23;8.50;99.90
19799;DHT22;10059;59.850;10.454;2022-11-14T02:30:50;8.60;99.90
19799;DHT22;10059;59.850;10.454;2022-11-14T02:33:18;8.50;99.90
19799;DHT22;10059;59.850;10.454;2022-11-14T02:35:44;8.50;99.90
19799;DHT22;10059;59.850;10.454;2022-11-14T02:38:13;8.50;99.90
19799;DHT22;10059;59.850;10.454;2022-11-14T02:40:39;8.50;99.90
19799;DHT22;10059;59.850;10.454;2022-11-14T02:43:06;8.60;99.90
19799;DHT22;10059;59.850;10.454;2022-11-14T02:45:33;8.50;99.90
19799;DHT22;10059;59.850;10.454;2022-11-14T02:48:00;8.50;99.90
19799;DHT22;10059;59.850;10.454;2022-11-14T02:50:27;8.50;99.90
19799;DHT22;10059;59.850;10.454;2022-11-14T02:52:54;8.60;99.90
19799;DHT22;10059;59.850;10.454;2022-11-14T02:55:23;8.60;99.90
19799;DHT22;10059;59.850;10.454;2022-11-14T02:57:50;8.60;99.90
19799;DHT22;10059;59.850;10.454;2022-11-14T03:00:17;8.70;99.90
19799;DHT22;10059;59.850;10.454;2022-11-14T03:02:45;8.70;99.90
19799;DHT22;10059;59.850;10.454;2022-11-14T03:05:12;8.60;99.90
19799;DHT22;10059;59.850;10.454;2022-11-14T03:07:38;8.60;99.90
19799;DHT22;10059;59.850;10.454;2022-11-14T03:10:06;8.50;99.90
19799;DHT22;10059;59.850;10.454;2022-11-14T03:12:35;8.50;99.90
19799;DHT22;10059;59.850;10.454;2022-11-14T03:15:03;8.40;99.90
19799;DHT22;10059;59.850;10.454;2022-11-14T03:17:30;8.40;99.90
19799;DHT22;10059;59.850;10.454;2022-11-14T03:19:58;8.40;99.90
19799;DHT22;10059;59.850;10.454;2022-11-14T03:22:25;8.60;99.90
19799;DHT22;10059;59.850;10.454;2022-11-14T03:24:52;8.60;99.90
19799;DHT22;10059;59.850;10.454;2022-11-14T03:27:18;8.50;99.90
19799;DHT22;10059;59.850;10.454;2022-11-14T03:29:47;8.60;99.90
19799;DHT22;10059;59.850;10.454;2022-11-14T03:32:14;8.60;99.90
19799;DHT22;10059;59.850;10.454;2022-11-14T03:34:41;8.50;99.90
19799;DHT22;10059;59.850;10.454;2022-11-14T03:37:09;8.50;99.90
19799;DHT22;10059;59.850;10.454;2022-11-14T03:39:36;8.60;99.90
19799;DHT22;10059;59.850;10.454;2022-11-14T03:42:03;8.60;99.90
19799;DHT22;10059;59.850;10.454;2022-11-14T03:44:30;8.60;99.90
19799;DHT22;10059;59.850;10.454;2022-11-14T03:46:58;8.70;99.90
19799;DHT22;10059;59.850;10.454;2022-11-14T03:49:25;8.70;99.90
19799;DHT22;10059;59.850;10.454;2022-11-14T03:51:52;8.80;99.90
19799;DHT22;10059;59.850;10.454;2022-11-14T03:54:19;8.80;99.90
19799;DHT22;10059;59.850;10.454;2022-11-14T03:56:46;8.80;99.90
19799;DHT22;10059;59.850;10.454;2022-11-14T03:59:13;8.80;99.90
19799;DHT22;10059;59.850;10.454;2022-11-14T04:01:39;8.80;99.90
19799;DHT22;10059;59.850;10.454;2022-11-14T04:04:12;8.80;99.90
19799;DHT22;10059;59.850;10.454;2022-11-14T04:06:40;8.80;99.90
19799;DHT22;10059;59.850;10.454;2022-11-14T04:09:06;8.80;99.90
19799;DHT22;10059;59.850;10.454;2022-11-14T04:11:35;8.70;99.90
19799;DHT22;10059;59.850;10.454;2022-11-14T04:14:02;8.60;99.90
19799;DHT22;10059;59.850;10.454;2022-11-14T04:16:29;8.60;99.90
19799;DHT22;10059;59.850;10.454;2022-11-14T04:18:56;8.50;99.90
19799;DHT22;10059;59.850;10.454;2022-11-14T04:21:24;8.50;99.90
19799;DHT22;10059;59.850;10.454;2022-11-14T04:23:51;8.50;99.90
19799;DHT22;10059;59.850;10.454;2022-11-14T04:26:18;8.50;99.90
19799;DHT22;10059;59.850;10.454;2022-11-14T04:28:45;8.50;99.90
19799;DHT22;10059;59.850;10.454;2022-11-14T04:31:12;8.50;99.90
19799;DHT22;10059;59.850;10.454;2022-11-14T04:33:39;8.40;99.90
19799;DHT22;10059;59.850;10.454;2022-11-14T04:36:06;8.40;99.90
19799;DHT22;10059;59.850;10.454;2022-11-14T04:38:34;8.50;99.90
19799;DHT22;10059;59.850;10.454;2022-11-14T04:41:10;8.40;99.90
19799;DHT22;10059;59.850;10.454;2022-11-14T04:43:37;8.30;99.90
19799;DHT22;10059;59.850;10.454;2022-11-14T04:46:04;8.30;99.90
19799;DHT22;10059;59.850;10.454;2022-11-14T04:48:31;8.30;99.90
19799;DHT22;10059;59.850;10.454;2022-11-14T04:50:58;8.40;99.90
19799;DHT22;10059;59.850;10.454;2022-11-14T04:53:25;8.50;99.90
19799;DHT22;10059;59.850;10.454;2022-11-14T04:55:53;8.40;99.90
19799;DHT22;10059;59.850;10.454;2022-11-14T04:58:23;8.40;99.90
19799;DHT22;10059;59.850;10.454;2022-11-14T05:00:51;8.40;99.90
19799;DHT22;10059;59.850;10.454;2022-11-14T05:03:17;8.40;99.90
19799;DHT22;10059;59.850;10.454;2022-11-14T05:05:44;8.40;99.90
19799;DHT22;10059;59.850;10.454;2022-11-14T05:08:11;8.40;99.90
19799;DHT22;10059;59.850;10.454;2022-11-14T05:10:41;8.40;99.90
19799;DHT22;10059;59.850;10.454;2022-11-14T05:13:10;8.60;99.90
19799;DHT22;10059;59.850;10.454;2022-11-14T05:15:37;8.60;99.90
19799;DHT22;10059;59.850;10.454;2022-11-14T05:18:04;8.60;99.90
19799;DHT22;10059;59.850;10.454;2022-11-14T05:20:30;8.50;99.90
19799;DHT22;10059;59.850;10.454;2022-11-14T05:22:57;8.50;99.90
19799;DHT22;10059;59.850;10.454;2022-11-14T05:25:24;8.50;99.90
19799;DHT22;10059;59.850;10.454;2022-11-14T05:27:51;8.60;99.90
19799;DHT22;10059;59.850;10.454;2022-11-14T05:30:19;8.50;99.90
19799;DHT22;10059;59.850;10.454;2022-11-14T05:32:46;8.40;99.90
19799;DHT22;10059;59.850;10.454;2022-11-14T05:35:13;8.30;99.90
19799;DHT22;10059;59.850;10.454;2022-11-14T05:37:40;8.30;99.90
19799;DHT22;10059;59.850;10.454;2022-11-14T05:40:08;8.40;99.90
19799;DHT22;10059;59.850;10.454;2022-11-14T05:42:35;8.40;99.90
19799;DHT22;10059;59.850;10.454;2022-11-14T05:45:02;8.50;99.90
19799;DHT22;10059;59.850;10.454;2022-11-14T05:47:31;8.50;99.90
19799;DHT22;10059;59.850;10.454;2022-11-14T05:49:58;8.60;99.90
19799;DHT22;10059;59.850;10.454;2022-11-14T05:52:25;8.60;99.90
19799;DHT22;10059;59.850;10.454;2022-11-14T05:54:51;8.50;99.90
19799;DHT22;10059;59.850;10.454;2022-11-14T05:57:18;8.40;99.90
19799;DHT22;10059;59.850;10.454;2022-11-14T05:59:45;8.30;99.90
19799;DHT22;10059;59.850;10.454;2022-11-14T06:02:12;8.20;99.90
19799;DHT22;10059;59.850;10.454;2022-11-14T06:04:40;8.30;99.90
19799;DHT22;10059;59.850;10.454;2022-11-14T06:07:07;8.30;99.90
19799;DHT22;10059;59.850;10.454;2022-11-14T06:09:34;8.30;99.90
19799;DHT22;10059;59.850;10.454;2022-11-14T06:12:01;8.20;99.90
19799;DHT22;10059;59.850;10.454;2022-11-14T06:14:30;8.30;99.90
19799;DHT22;10059;59.850;10.454;2022-11-14T06:16:57;8.10;99.90
19799;DHT22;10059;59.850;10.454;2022-11-14T06:19:24;8.20;99.90
19799;DHT22;10059;59.850;10.454;2022-11-14T06:21:52;8.30;99.90
19799;DHT22;10059;59.850;10.454;2022-11-14T06:24:19;8.40;99.90
19799;DHT22;10059;59.850;10.454;2022-11-14T06:26:46;8.30;99.90
19799;DHT22;10059;59.850;10.454;2022-11-14T06:29:13;8.30;99.90
19799;DHT22;10059;59.850;10.454;2022-11-14T06:31:40;8.10;99.90
19799;DHT22;10059;59.850;10.454;2022-11-14T06:34:07;8.00;99.90
19799;DHT22;10059;59.850;10.454;2022-11-14T06:36:33;8.10;99.90
19799;DHT22;10059;59.850;10.454;2022-11-14T06:39:02;8.10;99.90
19799;DHT22;10059;59.850;10.454;2022-11-14T06:41:29;8.20;99.90
19799;DHT22;10059;59.850;10.454;2022-11-14T06:43:55;8.20;99.90
19799;DHT22;10059;59.850;10.454;2022-11-14T06:46:22;8.30;99.90
19799;DHT22;10059;59.850;10.454;2022-11-14T06:48:50;8.20;99.90
19799;DHT22;10059;59.850;10.454;2022-11-14T06:51:17;8.20;99.90
19799;DHT22;10059;59.850;10.454;2022-11-14T06:53:44;8.20;99.90
19799;DHT22;10059;59.850;10.454;2022-11-14T06:56:16;8.30;99.90
19799;DHT22;10059;59.850;10.454;2022-11-14T06:58:46;8.20;99.90
19799;DHT22;10059;59.850;10.454;2022-11-14T07:01:15;8.10;99.90
19799;DHT22;10059;59.850;10.454;2022-11-14T07:03:43;8.10;99.90
19799;DHT22;10059;59.850;10.454;2022-11-14T07:06:12;8.10;99.90
19799;DHT22;10059;59.850;10.454;2022-11-14T07:08:39;8.10;99.90
19799;DHT22;10059;59.850;10.454;2022-11-14T07:11:09;8.00;99.90
19799;DHT22;10059;59.850;10.454;2022-11-14T07:13:37;8.00;99.90
19799;DHT22;10059;59.850;10.454;2022-11-14T07:16:05;7.90;99.90
19799;DHT22;10059;59.850;10.454;2022-11-14T07:18:32;7.80;99.90
19799;DHT22;10059;59.850;10.454;2022-11-14T07:21:01;7.80;99.90
19799;DHT22;10059;59.850;10.454;2022-11-14T07:23:29;7.80;99.90
19799;DHT22;10059;59.850;10.454;2022-11-14T07:25:59;7.70;99.90
19799;DHT22;10059;59.850;10.454;2022-11-14T07:28:26;7.60;99.90
19799;DHT22;10059;59.850;10.454;2022-11-14T07:30:54;7.70;99.90
19799;DHT22;10059;59.850;10.454;2022-11-14T07:33:24;7.70;99.90
19799;DHT22;10059;59.850;10.454;2022-11-14T07:35:50;7.80;99.90
19799;DHT22;10059;59.850;10.454;2022-11-14T07:38:17;7.80;99.90
19799;DHT22;10059;59.850;10.454;2022-11-14T07:40:52;7.80;99.90
19799;DHT22;10059;59.850;10.454;2022-11-14T07:43:19;7.80;99.90
19799;DHT22;10059;59.850;10.454;2022-11-14T07:45:46;7.90;99.90
19799;DHT22;10059;59.850;10.454;2022-11-14T07:48:15;8.00;99.90
19799;DHT22;10059;59.850;10.454;2022-11-14T07:50:42;8.00;99.90
19799;DHT22;10059;59.850;10.454;2022-11-14T07:53:11;7.90;99.90
19799;DHT22;10059;59.850;10.454;2022-11-14T07:55:40;8.00;99.90
19799;DHT22;10059;59.850;10.454;2022-11-14T07:58:07;7.90;99.90
19799;DHT22;10059;59.850;10.454;2022-11-14T08:00:34;7.80;99.90
19799;DHT22;10059;59.850;10.454;2022-11-14T08:03:01;7.80;99.90
19799;DHT22;10059;59.850;10.454;2022-11-14T08:05:29;7.80;99.90
19799;DHT22;10059;59.850;10.454;2022-11-14T08:07:56;7.80;99.90
19799;DHT22;10059;59.850;10.454;2022-11-14T08:10:23;7.80;99.90
19799;DHT22;10059;59.850;10.454;2022-11-14T08:12:56;7.80;99.90
19799;DHT22;10059;59.850;10.454;2022-11-14T08:15:24;7.80;99.90
19799;DHT22;10059;59.850;10.454;2022-11-14T08:17:51;7.80;99.90
19799;DHT22;10059;59.850;10.454;2022-11-14T08:20:18;7.80;99.90
19799;DHT22;10059;59.850;10.454;2022-11-14T08:22:46;7.80;99.90
19799;DHT22;10059;59.850;10.454;2022-11-14T08:25:13;7.90;99.90
19799;DHT22;10059;59.850;10.454;2022-11-14T08:27:40;7.80;99.90
19799;DHT22;10059;59.850;10.454;2022-11-14T08:30:08;7.80;99.90
19799;DHT22;10059;59.850;10.454;2022-11-14T08:32:35;8.00;99.90
19799;DHT22;10059;59.850;10.454;2022-11-14T08:35:02;8.00;99.90
19799;DHT22;10059;59.850;10.454;2022-11-14T08:37:29;8.00;99.90
19799;DHT22;10059;59.850;10.454;2022-11-14T08:39:58;7.90;99.90
19799;DHT22;10059;59.850;10.454;2022-11-14T08:42:24;7.90;99.90
19799;DHT22;10059;59.850;10.454;2022-11-14T08:44:51;8.00;99.90
19799;DHT22;10059;59.850;10.454;2022-11-14T08:47:18;8.00;99.90
19799;DHT22;10059;59.850;10.454;2022-11-14T08:49:51;7.90;99.90
19799;DHT22;10059;59.850;10.454;2022-11-14T08:52:18;7.80;99.90
19799;DHT22;10059;59.850;10.454;2022-11-14T08:54:45;7.80;99.90
19799;DHT22;10059;59.850;10.454;2022-11-14T08:57:13;7.80;99.90
19799;DHT22;10059;59.850;10.454;2022-11-14T08:59:40;7.70;99.90
19799;DHT22;10059;59.850;10.454;2022-11-14T09:02:09;7.70;99.90
19799;DHT22;10059;59.850;10.454;2022-11-14T09:04:36;7.70;99.90
19799;DHT22;10059;59.850;10.454;2022-11-14T09:07:02;7.70;99.90
19799;DHT22;10059;59.850;10.454;2022-11-14T09:09:29;7.70;99.90
19799;DHT22;10059;59.850;10.454;2022-11-14T09:11:56;7.80;99.90
19799;DHT22;10059;59.850;10.454;2022-11-14T09:14:25;7.80;99.90
19799;DHT22;10059;59.850;10.454;2022-11-14T09:16:52;7.90;99.90
19799;DHT22;10059;59.850;10.454;2022-11-14T09:19:18;8.00;99.90
19799;DHT22;10059;59.850;10.454;2022-11-14T09:21:45;7.90;99.90
19799;DHT22;10059;59.850;10.454;2022-11-14T09:24:12;8.00;99.90
19799;DHT22;10059;59.850;10.454;2022-11-14T09:26:39;8.10;99.90
19799;DHT22;10059;59.850;10.454;2022-11-14T09:29:06;8.10;99.90
19799;DHT22;10059;59.850;10.454;2022-11-14T09:31:34;8.10;99.90
19799;DHT22;10059;59.850;10.454;2022-11-14T09:34:01;8.20;99.90
19799;DHT22;10059;59.850;10.454;2022-11-14T09:36:28;8.20;99.90
19799;DHT22;10059;59.850;10.454;2022-11-14T09:38:55;8.20;99.90
19799;DHT22;10059;59.850;10.454;2022-11-14T09:41:26;8.20;99.90
19799;DHT22;10059;59.850;10.454;2022-11-14T09:44:20;8.00;99.90
19799;DHT22;10059;59.850;10.454;2022-11-14T09:46:55;7.90;99.90
19799;DHT22;10059;59.850;10.454;2022-11-14T09:49:26;7.90;99.90
19799;DHT22;10059;59.850;10.454;2022-11-14T09:51:59;7.90;99.90
19799;DHT22;10059;59.850;10.454;2022-11-14T09:54:35;7.90;99.90
19799;DHT22;10059;59.850;10.454;2022-11-14T09:57:13;8.00;99.90
19799;DHT22;10059;59.850;10.454;2022-11-14T09:59:40;8.00;99.90
19799;DHT22;10059;59.850;10.454;2022-11-14T10:05:20;8.00;99.90
19799;DHT22;10059;59.850;10.454;2022-11-14T10:08:01;7.90;99.90
19799;DHT22;10059;59.850;10.454;2022-11-14T10:10:42;7.90;99.90
19799;DHT22;10059;59.850;10.454;2022-11-14T10:13:22;7.90;99.90
19799;DHT22;10059;59.850;10.454;2022-11-14T10:15:55;7.80;99.90
19799;DHT22;10059;59.850;10.454;2022-11-14T10:18:37;8.00;99.90
19799;DHT22;10059;59.850;10.454;2022-11-14T10:21:19;8.00;99.90
19799;DHT22;10059;59.850;10.454;2022-11-14T10:23:54;8.00;99.90
19799;DHT22;10059;59.850;10.454;2022-11-14T10:26:26;8.00;99.90
19799;DHT22;10059;59.850;10.454;2022-11-14T10:29:23;8.00;99.90
19799;DHT22;10059;59.850;10.454;2022-11-14T10:32:00;8.10;99.90
19799;DHT22;10059;59.850;10.454;2022-11-14T10:34:33;8.20;99.90
19799;DHT22;10059;59.850;10.454;2022-11-14T10:37:05;8.30;99.90
19799;DHT22;10059;59.850;10.454;2022-11-14T10:39:40;8.30;99.90
19799;DHT22;10059;59.850;10.454;2022-11-14T10:42:12;8.40;99.90
19799;DHT22;10059;59.850;10.454;2022-11-14T10:44:46;8.30;99.90
19799;DHT22;10059;59.850;10.454;2022-11-14T10:47:18;8.30;99.90
19799;DHT22;10059;59.850;10.454;2022-11-14T10:49:51;8.30;99.90
19799;DHT22;10059;59.850;10.454;2022-11-14T10:52:23;8.40;99.90
19799;DHT22;10059;59.850;10.454;2022-11-14T10:54:57;8.50;99.90
19799;DHT22;10059;59.850;10.454;2022-11-14T10:57:27;8.60;99.90
19799;DHT22;10059;59.850;10.454;2022-11-14T10:59:54;8.60;99.90
19799;DHT22;10059;59.850;10.454;2022-11-14T11:02:21;8.40;99.90
19799;DHT22;10059;59.850;10.454;2022-11-14T11:04:50;8.40;99.90
19799;DHT22;10059;59.850;10.454;2022-11-14T11:07:19;8.50;99.90
19799;DHT22;10059;59.850;10.454;2022-11-14T11:10:22;8.70;99.90
19799;DHT22;10059;59.850;10.454;2022-11-14T11:13:12;8.70;99.90
19799;DHT22;10059;59.850;10.454;2022-11-14T11:15:41;8.70;99.90
19799;DHT22;10059;59.850;10.454;2022-11-14T11:18:24;8.60;99.90
19799;DHT22;10059;59.850;10.454;2022-11-14T11:21:05;8.60;99.90
19799;DHT22;10059;59.850;10.454;2022-11-14T11:23:32;8.60;99.90
19799;DHT22;10059;59.850;10.454;2022-11-14T11:26:00;8.60;99.90
19799;DHT22;10059;59.850;10.454;2022-11-14T11:28:31;8.60;99.90
19799;DHT22;10059;59.850;10.454;2022-11-14T11:30:59;8.70;99.90
19799;DHT22;10059;59.850;10.454;2022-11-14T11:33:28;8.70;99.90
19799;DHT22;10059;59.850;10.454;2022-11-14T11:35:57;8.70;99.90
19799;DHT22;10059;59.850;10.454;2022-11-14T11:38:28;8.70;99.90
19799;DHT22;10059;59.850;10.454;2022-11-14T11:41:00;8.70;99.90
19799;DHT22;10059;59.850;10.454;2022-11-14T11:43:33;8.90;99.90
19799;DHT22;10059;59.850;10.454;2022-11-14T11:46:04;9.00;99.90
19799;DHT22;10059;59.850;10.454;2022-11-14T11:48:36;9.00;99.90
19799;DHT22;10059;59.850;10.454;2022-11-14T11:51:05;9.00;99.90
19799;DHT22;10059;59.850;10.454;2022-11-14T11:53:37;9.10;99.90
19799;DHT22;10059;59.850;10.454;2022-11-14T11:56:08;9.00;99.90
19799;DHT22;10059;59.850;10.454;2022-11-14T11:58:40;8.90;99.90
19799;DHT22;10059;59.850;10.454;2022-11-14T12:01:09;8.90;99.90
19799;DHT22;10059;59.850;10.454;2022-11-14T12:03:37;9.00;99.90
19799;DHT22;10059;59.850;10.454;2022-11-14T12:06:11;9.00;99.90
19799;DHT22;10059;59.850;10.454;2022-11-14T12:08:48;9.00;99.90
19799;DHT22;10059;59.850;10.454;2022-11-14T12:11:18;8.90;99.90
19799;DHT22;10059;59.850;10.454;2022-11-14T12:14:06;8.90;99.90
19799;DHT22;10059;59.850;10.454;2022-11-14T12:16:52;9.00;99.90
19799;DHT22;10059;59.850;10.454;2022-11-14T12:19:41;9.00;99.90
19799;DHT22;10059;59.850;10.454;2022-11-14T12:28:19;9.00;99.90
19799;DHT22;10059;59.850;10.454;2022-11-14T12:30:52;8.90;99.90
19799;DHT22;10059;59.850;10.454;2022-11-14T12:33:24;8.90;99.90
19799;DHT22;10059;59.850;10.454;2022-11-14T12:35:55;8.80;99.90
19799;DHT22;10059;59.850;10.454;2022-11-14T12:38:22;8.80;99.90
19799;DHT22;10059;59.850;10.454;2022-11-14T12:40:53;8.70;99.90
19799;DHT22;10059;59.850;10.454;2022-11-14T12:43:29;8.80;99.90
19799;DHT22;10059;59.850;10.454;2022-11-14T12:46:00;8.80;99.90
19799;DHT22;10059;59.850;10.454;2022-11-14T12:48:32;8.60;99.90
19799;DHT22;10059;59.850;10.454;2022-11-14T12:51:02;8.50;99.90
19799;DHT22;10059;59.850;10.454;2022-11-14T12:53:40;8.60;99.90
19799;DHT22;10059;59.850;10.454;2022-11-14T12:56:24;8.60;99.90
19799;DHT22;10059;59.850;10.454;2022-11-14T12:59:31;8.70;99.90
19799;DHT22;10059;59.850;10.454;2022-11-14T13:02:35;8.70;99.90
19799;DHT22;10059;59.850;10.454;2022-11-14T13:08:35;8.80;99.90
19799;DHT22;10059;59.850;10.454;2022-11-14T13:14:16;8.80;99.90
19799;DHT22;10059;59.850;10.454;2022-11-14T13:17:23;8.80;99.90
19799;DHT22;10059;59.850;10.454;2022-11-14T13:20:27;8.90;99.90
19799;DHT22;10059;59.850;10.454;2022-11-14T13:26:34;8.60;99.90
19799;DHT22;10059;59.850;10.454;2022-11-14T13:29:01;8.70;99.90
19799;DHT22;10059;59.850;10.454;2022-11-14T13:31:45;8.70;99.90
19799;DHT22;10059;59.850;10.454;2022-11-14T13:34:32;8.80;99.90
19799;DHT22;10059;59.850;10.454;2022-11-14T13:37:09;8.80;99.90
19799;DHT22;10059;59.850;10.454;2022-11-14T13:39:43;8.80;99.90
19799;DHT22;10059;59.850;10.454;2022-11-14T13:42:28;8.70;99.90
19799;DHT22;10059;59.850;10.454;2022-11-14T13:45:35;8.70;99.90
19799;DHT22;10059;59.850;10.454;2022-11-14T13:51:08;8.80;99.90
19799;DHT22;10059;59.850;10.454;2022-11-14T13:53:38;8.80;99.90
19799;DHT22;10059;59.850;10.454;2022-11-14T13:56:16;8.80;99.90
19799;DHT22;10059;59.850;10.454;2022-11-14T13:59:26;8.70;99.90
19799;DHT22;10059;59.850;10.454;2022-11-14T14:02:21;8.60;99.90
19799;DHT22;10059;59.850;10.454;2022-11-14T14:05:00;8.60;99.90
19799;DHT22;10059;59.850;10.454;2022-11-14T14:07:38;8.40;99.90
19799;DHT22;10059;59.850;10.454;2022-11-14T14:10:15;8.40;99.90
19799;DHT22;10059;59.850;10.454;2022-11-14T14:12:57;8.40;99.90
19799;DHT22;10059;59.850;10.454;2022-11-14T14:15:29;8.40;99.90
19799;DHT22;10059;59.850;10.454;2022-11-14T14:18:05;8.30;99.90
19799;DHT22;10059;59.850;10.454;2022-11-14T14:20:42;8.20;99.90
19799;DHT22;10059;59.850;10.454;2022-11-14T14:23:20;8.30;99.90
19799;DHT22;10059;59.850;10.454;2022-11-14T14:25:53;8.40;99.90
19799;DHT22;10059;59.850;10.454;2022-11-14T14:28:32;8.50;99.90
19799;DHT22;10059;59.850;10.454;2022-11-14T14:31:08;8.40;99.90
19799;DHT22;10059;59.850;10.454;2022-11-14T14:33:40;8.50;99.90
19799;DHT22;10059;59.850;10.454;2022-11-14T14:36:18;8.40;99.90
19799;DHT22;10059;59.850;10.454;2022-11-14T14:38:45;8.50;99.90
19799;DHT22;10059;59.850;10.454;2022-11-14T14:41:13;8.60;99.90
19799;DHT22;10059;59.850;10.454;2022-11-14T14:43:42;8.50;99.90
19799;DHT22;10059;59.850;10.454;2022-11-14T14:46:09;8.60;99.90
19799;DHT22;10059;59.850;10.454;2022-11-14T14:48:39;8.50;99.90
19799;DHT22;10059;59.850;10.454;2022-11-14T14:51:12;8.50;99.90
19799;DHT22;10059;59.850;10.454;2022-11-14T14:53:50;8.60;99.90
19799;DHT22;10059;59.850;10.454;2022-11-14T14:56:19;8.60;99.90
19799;DHT22;10059;59.850;10.454;2022-11-14T14:58:46;8.50;99.90
19799;DHT22;10059;59.850;10.454;2022-11-14T15:01:14;8.50;99.90
19799;DHT22;10059;59.850;10.454;2022-11-14T15:03:45;8.40;99.90
19799;DHT22;10059;59.850;10.454;2022-11-14T15:06:21;8.40;99.90
19799;DHT22;10059;59.850;10.454;2022-11-14T15:08:56;8.20;99.90
19799;DHT22;10059;59.850;10.454;2022-11-14T15:11:24;8.40;99.90
19799;DHT22;10059;59.850;10.454;2022-11-14T15:13:54;8.30;99.90
19799;DHT22;10059;59.850;10.454;2022-11-14T15:16:23;8.20;99.90
19799;DHT22;10059;59.850;10.454;2022-11-14T15:18:51;8.00;99.90
19799;DHT22;10059;59.850;10.454;2022-11-14T15:21:24;8.00;99.90
19799;DHT22;10059;59.850;10.454;2022-11-14T15:23:59;8.00;99.90
19799;DHT22;10059;59.850;10.454;2022-11-14T15:26:28;8.30;99.90
19799;DHT22;10059;59.850;10.454;2022-11-14T15:29:04;8.30;99.90
19799;DHT22;10059;59.850;10.454;2022-11-14T15:31:34;8.40;99.90
19799;DHT22;10059;59.850;10.454;2022-11-14T15:34:03;8.30;99.90
19799;DHT22;10059;59.850;10.454;2022-11-14T15:36:30;8.30;99.90
19799;DHT22;10059;59.850;10.454;2022-11-14T15:39:00;8.40;99.90
19799;DHT22;10059;59.850;10.454;2022-11-14T15:41:28;8.30;99.90
19799;DHT22;10059;59.850;10.454;2022-11-14T15:43:56;8.30;99.90
19799;DHT22;10059;59.850;10.454;2022-11-14T15:46:40;8.30;99.90
19799;DHT22;10059;59.850;10.454;2022-11-14T15:49:15;8.30;99.90
19799;DHT22;10059;59.850;10.454;2022-11-14T15:51:45;8.20;99.90
19799;DHT22;10059;59.850;10.454;2022-11-14T15:54:35;8.30;99.90
19799;DHT22;10059;59.850;10.454;2022-11-14T15:57:11;8.30;99.90
19799;DHT22;10059;59.850;10.454;2022-11-14T15:59:38;8.20;99.90
19799;DHT22;10059;59.850;10.454;2022-11-14T16:02:11;8.20;99.90
19799;DHT22;10059;59.850;10.454;2022-11-14T16:04:40;8.30;99.90
19799;DHT22;10059;59.850;10.454;2022-11-14T16:07:09;8.30;99.90
19799;DHT22;10059;59.850;10.454;2022-11-14T16:09:38;8.20;99.90
19799;DHT22;10059;59.850;10.454;2022-11-14T16:12:06;8.10;99.90
19799;DHT22;10059;59.850;10.454;2022-11-14T16:14:33;7.90;99.90